createdAt,value
2017-05-19T00:00:24.006Z,17.13
2017-05-19T00:01:24.005Z,17.15
2017-05-19T00:02:24.033Z,17.09
2017-05-19T00:03:24.075Z,17.03
2017-05-19T00:04:24.089Z,17.05
2017-05-19T00:05:24.140Z,17.07
2017-05-19T00:06:24.183Z,16.97
2017-05-19T00:07:24.215Z,17.06
2017-05-19T00:08:24.264Z,17.07
2017-05-19T00:09:24.274Z,17.03
2017-05-19T00:10:24.309Z,17.07
2017-05-19T00:11:24.357Z,16.94
2017-05-19T00:12:24.391Z,16.87
2017-05-19T00:13:24.436Z,16.91
2017-05-19T00:14:24.449Z,16.94
2017-05-19T00:15:24.518Z,16.95
2017-05-19T00:16:24.545Z,16.92
2017-05-19T00:17:24.565Z,16.97
2017-05-19T00:18:24.616Z,16.95
2017-05-19T00:19:24.640Z,16.9
2017-05-19T00:20:24.677Z,17.05
2017-05-19T00:21:24.726Z,17.06
2017-05-19T00:22:24.765Z,17.07
2017-05-19T00:23:24.804Z,16.97
2017-05-19T00:24:24.827Z,17.05
2017-05-19T00:25:24.853Z,17.05
2017-05-19T00:26:24.892Z,17.06
2017-05-19T00:27:24.944Z,16.99
2017-05-19T00:28:24.933Z,16.95
2017-05-19T00:29:25.007Z,16.92
2017-05-19T00:30:25.056Z,16.91
2017-05-19T00:31:25.088Z,16.81
2017-05-19T00:32:25.146Z,16.9
2017-05-19T00:33:25.178Z,16.84
2017-05-19T00:34:25.315Z,16.74
2017-05-19T00:35:25.237Z,16.7
2017-05-19T00:36:25.247Z,16.69
2017-05-19T00:37:25.304Z,16.76
2017-05-19T00:38:25.337Z,16.76
2017-05-19T00:39:25.385Z,16.69
2017-05-19T00:40:25.401Z,16.67
2017-05-19T00:41:25.437Z,16.69
2017-05-19T00:42:25.470Z,16.7
2017-05-19T00:43:25.526Z,16.69
2017-05-19T00:44:25.546Z,16.67
2017-05-19T00:45:25.586Z,16.54
2017-05-19T00:46:25.633Z,16.66
2017-05-19T00:47:25.666Z,16.63
2017-05-19T00:48:25.712Z,16.51
2017-05-19T00:49:25.747Z,16.48
2017-05-19T00:50:25.760Z,16.52
2017-05-19T00:51:25.820Z,16.63
2017-05-19T00:52:25.945Z,16.57
2017-05-19T00:53:25.874Z,16.59
2017-05-19T00:54:25.928Z,16.52
2017-05-19T00:55:25.964Z,16.48
2017-05-19T00:56:26.006Z,16.63
2017-05-19T00:57:26.020Z,16.51
2017-05-19T00:58:26.083Z,16.52
2017-05-19T00:59:26.088Z,16.44
2017-05-19T01:00:26.143Z,16.44
2017-05-19T01:01:26.167Z,16.44
2017-05-19T01:02:26.209Z,16.39
2017-05-19T01:03:26.263Z,16.4
2017-05-19T01:04:26.268Z,16.36
2017-05-19T01:05:26.324Z,16.34
2017-05-19T01:06:26.357Z,16.34
2017-05-19T01:07:26.379Z,16.3
2017-05-19T01:08:26.430Z,16.4
2017-05-19T01:09:26.475Z,16.32
2017-05-19T01:10:26.475Z,16.26
2017-05-19T01:11:26.544Z,16.25
2017-05-19T01:12:26.585Z,16.27
2017-05-19T01:13:26.619Z,16.27
2017-05-19T01:14:26.643Z,16.3
2017-05-19T01:15:26.848Z,16.21
2017-05-19T01:16:26.722Z,16.13
2017-05-19T01:17:26.754Z,16.13
2017-05-19T01:18:26.841Z,16.21
2017-05-19T01:19:26.833Z,16.1
2017-05-19T01:20:26.861Z,16.11
2017-05-19T01:21:26.932Z,16.14
2017-05-19T01:22:26.934Z,16.13
2017-05-19T01:23:26.983Z,16.1
2017-05-19T01:24:27.085Z,16.11
2017-05-19T01:25:27.047Z,16.13
2017-05-19T01:26:27.069Z,16.11
2017-05-19T01:27:27.103Z,16.1
2017-05-19T01:28:27.160Z,16.13
2017-05-19T01:29:27.185Z,16.16
2017-05-19T01:30:27.316Z,16.16
2017-05-19T01:31:27.255Z,16.08
2017-05-19T01:32:27.292Z,16.11
2017-05-19T01:33:27.339Z,16.16
2017-05-19T01:34:27.377Z,16.11
2017-05-19T01:35:27.395Z,16.11
2017-05-19T01:36:27.424Z,16.02
2017-05-19T01:37:27.478Z,16.07
2017-05-19T01:38:27.506Z,16
2017-05-19T01:39:27.532Z,15.96
2017-05-19T01:40:27.939Z,16.08
2017-05-19T01:41:27.636Z,16.02
2017-05-19T01:42:27.646Z,16.07
2017-05-19T01:43:27.697Z,16.08
2017-05-19T01:44:27.713Z,15.95
2017-05-19T01:45:27.760Z,15.95
2017-05-19T01:46:27.780Z,15.95
2017-05-19T01:47:27.863Z,15.92
2017-05-19T01:48:27.858Z,15.92
2017-05-19T01:49:27.893Z,15.98
2017-05-19T01:50:27.940Z,15.98
2017-05-19T01:51:27.988Z,15.96
2017-05-19T01:52:28.017Z,15.98
2017-05-19T01:53:28.044Z,15.91
2017-05-19T01:54:28.092Z,15.98
2017-05-19T01:55:28.105Z,15.96
2017-05-19T01:56:28.136Z,15.95
2017-05-19T01:57:28.190Z,15.95
2017-05-19T01:58:28.236Z,16.02
2017-05-19T01:59:28.267Z,15.98
2017-05-19T02:00:28.295Z,15.98
2017-05-19T02:01:28.356Z,15.98
2017-05-19T02:02:28.581Z,15.95
2017-05-19T02:03:28.411Z,15.91
2017-05-19T02:04:28.433Z,15.88
2017-05-19T02:05:28.506Z,15.84
2017-05-19T02:06:28.496Z,15.83
2017-05-19T02:07:28.525Z,15.83
2017-05-19T02:08:28.587Z,15.81
2017-05-19T02:09:28.603Z,15.8
2017-05-19T02:10:28.658Z,15.81
2017-05-19T02:11:28.700Z,15.7
2017-05-19T02:12:28.712Z,15.7
2017-05-19T02:13:28.767Z,15.65
2017-05-19T02:14:28.800Z,15.74
2017-05-19T02:15:28.833Z,15.71
2017-05-19T02:16:28.876Z,15.7
2017-05-19T02:17:28.894Z,15.71
2017-05-19T02:18:29.022Z,15.77
2017-05-19T02:19:29.028Z,15.74
2017-05-19T02:20:29.000Z,15.7
2017-05-19T02:21:29.052Z,15.73
2017-05-19T02:22:29.094Z,15.74
2017-05-19T02:23:29.098Z,15.71
2017-05-19T02:24:29.157Z,15.74
2017-05-19T02:25:29.198Z,15.74
2017-05-19T02:26:29.221Z,15.67
2017-05-19T02:27:29.260Z,15.78
2017-05-19T02:28:29.368Z,15.74
2017-05-19T02:29:29.317Z,15.7
2017-05-19T02:30:29.371Z,15.68
2017-05-19T02:31:29.391Z,15.68
2017-05-19T02:32:29.420Z,15.73
2017-05-19T02:33:29.477Z,15.71
2017-05-19T02:34:29.511Z,15.74
2017-05-19T02:35:29.525Z,15.56
2017-05-19T02:36:29.590Z,15.63
2017-05-19T02:37:29.608Z,15.56
2017-05-19T02:38:29.658Z,15.62
2017-05-19T02:39:29.691Z,15.58
2017-05-19T02:40:29.723Z,15.67
2017-05-19T02:41:29.768Z,15.56
2017-05-19T02:42:29.795Z,15.6
2017-05-19T02:43:29.821Z,15.47
2017-05-19T02:44:29.827Z,15.53
2017-05-19T02:45:29.922Z,15.44
2017-05-19T02:46:29.922Z,15.44
2017-05-19T02:47:29.975Z,15.45
2017-05-19T02:48:30.015Z,15.44
2017-05-19T02:49:30.022Z,15.51
2017-05-19T02:50:30.091Z,15.49
2017-05-19T02:51:30.115Z,15.47
2017-05-19T02:52:30.134Z,15.38
2017-05-19T02:53:30.197Z,15.4
2017-05-19T02:54:30.203Z,15.38
2017-05-19T02:55:30.259Z,15.49
2017-05-19T02:56:30.299Z,15.47
2017-05-19T02:57:30.385Z,15.51
2017-05-19T02:58:30.361Z,15.47
2017-05-19T02:59:30.383Z,15.4
2017-05-19T03:00:30.425Z,15.41
2017-05-19T03:01:30.468Z,15.34
2017-05-19T03:02:30.515Z,15.38
2017-05-19T03:03:30.541Z,15.41
2017-05-19T03:04:30.578Z,15.4
2017-05-19T03:05:30.623Z,15.45
2017-05-19T03:06:30.634Z,15.51
2017-05-19T03:07:30.687Z,15.52
2017-05-19T03:08:30.725Z,15.55
2017-05-19T03:09:30.759Z,15.55
2017-05-19T03:10:30.772Z,15.52
2017-05-19T03:11:30.841Z,15.56
2017-05-19T03:12:30.858Z,15.49
2017-05-19T03:13:30.898Z,15.58
2017-05-19T03:14:30.910Z,15.59
2017-05-19T03:15:30.957Z,15.55
2017-05-19T03:16:31.008Z,15.59
2017-05-19T03:17:31.014Z,15.55
2017-05-19T03:18:31.074Z,15.43
2017-05-19T03:19:31.115Z,15.55
2017-05-19T03:20:31.142Z,15.6
2017-05-19T03:21:31.185Z,15.55
2017-05-19T03:22:31.220Z,15.59
2017-05-19T03:23:31.204Z,15.49
2017-05-19T03:24:31.279Z,15.51
2017-05-19T03:25:31.325Z,15.53
2017-05-19T03:26:31.328Z,15.59
2017-05-19T03:27:31.389Z,15.62
2017-05-19T03:28:31.434Z,15.62
2017-05-19T03:29:31.482Z,15.58
2017-05-19T03:30:31.498Z,15.62
2017-05-19T03:31:31.523Z,15.6
2017-05-19T03:32:31.570Z,15.52
2017-05-19T03:33:31.594Z,15.53
2017-05-19T03:34:31.617Z,15.51
2017-05-19T03:35:31.658Z,15.55
2017-05-19T03:36:31.705Z,15.44
2017-05-19T03:37:31.696Z,15.59
2017-05-19T03:38:31.786Z,15.63
2017-05-19T03:39:31.820Z,15.7
2017-05-19T03:40:31.851Z,15.62
2017-05-19T03:41:31.899Z,15.56
2017-05-19T03:42:31.925Z,15.62
2017-05-19T03:43:31.938Z,15.68
2017-05-19T03:44:31.989Z,15.7
2017-05-19T03:45:32.036Z,15.7
2017-05-19T03:46:32.065Z,15.74
2017-05-19T03:47:32.100Z,15.84
2017-05-19T03:48:32.139Z,15.83
2017-05-19T03:49:32.142Z,15.8
2017-05-19T03:50:32.206Z,15.83
2017-05-19T03:51:32.225Z,15.83
2017-05-19T03:52:32.277Z,15.84
2017-05-19T03:53:32.311Z,15.86
2017-05-19T03:54:32.325Z,15.89
2017-05-19T03:55:32.387Z,15.89
2017-05-19T03:56:32.403Z,15.86
2017-05-19T03:57:32.450Z,15.98
2017-05-19T03:58:32.489Z,15.93
2017-05-19T03:59:32.532Z,15.93
2017-05-19T04:00:32.815Z,15.96
2017-05-19T04:01:32.597Z,15.98
2017-05-19T04:02:32.627Z,15.91
2017-05-19T04:03:32.652Z,16
2017-05-19T04:04:32.707Z,15.96
2017-05-19T04:05:32.724Z,15.95
2017-05-19T04:06:32.756Z,15.98
2017-05-19T04:07:32.801Z,16.07
2017-05-19T04:08:32.825Z,16.13
2017-05-19T04:09:32.887Z,16.13
2017-05-19T04:10:32.907Z,16.11
2017-05-19T04:11:32.948Z,16.13
2017-05-19T04:12:32.984Z,16.25
2017-05-19T04:13:33.032Z,16.27
2017-05-19T04:14:33.024Z,16.29
2017-05-19T04:15:33.076Z,16.26
2017-05-19T04:16:33.181Z,16.33
2017-05-19T04:17:33.169Z,16.34
2017-05-19T04:18:33.233Z,16.3
2017-05-19T04:19:33.213Z,16.44
2017-05-19T04:20:33.275Z,16.39
2017-05-19T04:21:33.313Z,16.48
2017-05-19T04:22:33.336Z,16.52
2017-05-19T04:23:33.385Z,16.62
2017-05-19T04:24:33.432Z,16.66
2017-05-19T04:25:33.455Z,16.67
2017-05-19T04:26:33.484Z,16.76
2017-05-19T04:27:33.530Z,16.76
2017-05-19T04:28:33.565Z,16.7
2017-05-19T04:29:33.764Z,16.81
2017-05-19T04:30:33.691Z,16.84
2017-05-19T04:31:33.843Z,16.92
2017-05-19T04:32:33.706Z,16.82
2017-05-19T04:33:33.740Z,16.9
2017-05-19T04:34:33.777Z,16.97
2017-05-19T04:35:33.812Z,16.9
2017-05-19T04:36:33.827Z,16.92
2017-05-19T04:37:33.884Z,16.97
2017-05-19T04:38:33.904Z,17.07
2017-05-19T04:39:33.944Z,17.18
2017-05-19T04:40:33.971Z,17.12
2017-05-19T04:41:34.030Z,17.18
2017-05-19T04:42:34.264Z,17.28
2017-05-19T04:43:34.102Z,17.3
2017-05-19T04:44:34.126Z,17.35
2017-05-19T04:45:34.502Z,17.43
2017-05-19T04:46:34.208Z,17.49
2017-05-19T04:47:34.243Z,17.46
2017-05-19T04:48:34.284Z,17.57
2017-05-19T04:49:34.676Z,17.62
2017-05-19T04:50:34.347Z,17.71
2017-05-19T04:51:34.393Z,17.8
2017-05-19T04:52:34.406Z,17.86
2017-05-19T04:53:34.447Z,17.9
2017-05-19T04:54:34.561Z,17.94
2017-05-19T04:55:34.528Z,17.96
2017-05-19T04:56:34.569Z,17.88
2017-05-19T04:57:34.605Z,18.01
2017-05-19T04:58:34.652Z,17.99
2017-05-19T04:59:34.680Z,18.05
2017-05-19T05:00:34.850Z,18.1
2017-05-19T05:01:34.750Z,18.11
2017-05-19T05:02:35.047Z,18.13
2017-05-19T05:03:34.834Z,18.26
2017-05-19T05:04:34.861Z,18.21
2017-05-19T05:05:34.900Z,18.32
2017-05-19T05:06:34.943Z,18.31
2017-05-19T05:07:34.970Z,18.38
2017-05-19T05:08:35.008Z,18.39
2017-05-19T05:09:35.044Z,18.44
2017-05-19T05:10:35.082Z,18.56
2017-05-19T05:11:35.105Z,18.6
2017-05-19T05:12:35.148Z,18.57
2017-05-19T05:13:35.188Z,18.54
2017-05-19T05:14:35.238Z,18.61
2017-05-19T05:15:35.249Z,18.69
2017-05-19T05:16:35.266Z,18.69
2017-05-19T05:17:35.344Z,18.87
2017-05-19T05:18:35.385Z,19.1
2017-05-19T05:19:35.403Z,19.3
2017-05-19T05:20:35.497Z,19.67
2017-05-19T05:21:35.489Z,19.72
2017-05-19T05:22:35.731Z,20.04
2017-05-19T05:23:35.554Z,20.44
2017-05-19T05:24:35.779Z,20.94
2017-05-19T05:25:35.636Z,21.34
2017-05-19T05:26:35.658Z,21.51
2017-05-19T05:27:35.705Z,21.59
2017-05-19T05:28:35.786Z,21.71
2017-05-19T05:29:35.779Z,21.94
2017-05-19T05:30:35.916Z,21.93
2017-05-19T05:31:35.839Z,21.92
2017-05-19T05:32:35.897Z,21.74
2017-05-19T05:33:35.938Z,21.67
2017-05-19T05:34:35.983Z,21.86
2017-05-19T05:35:36.014Z,22.08
2017-05-19T05:36:36.027Z,22.39
2017-05-19T05:37:36.091Z,22.6
2017-05-19T05:38:36.139Z,22.82
2017-05-19T05:39:36.165Z,22.81
2017-05-19T05:40:36.205Z,22.6
2017-05-19T05:41:36.239Z,22.49
2017-05-19T05:42:36.277Z,22.51
2017-05-19T05:43:36.320Z,22.36
2017-05-19T05:44:36.340Z,22.38
2017-05-19T05:45:36.554Z,22.33
2017-05-19T05:46:36.441Z,22.26
2017-05-19T05:47:36.458Z,22.14
2017-05-19T05:48:36.513Z,22.16
2017-05-19T05:49:36.508Z,22.23
2017-05-19T05:50:36.583Z,22.22
2017-05-19T05:51:36.635Z,22.52
2017-05-19T05:52:36.668Z,23.14
2017-05-19T05:53:36.708Z,23.79
2017-05-19T05:54:36.762Z,24.15
2017-05-19T05:55:36.797Z,24.09
2017-05-19T05:56:36.817Z,23.97
2017-05-19T05:57:36.840Z,23.99
2017-05-19T05:58:36.874Z,24.33
2017-05-19T05:59:36.999Z,24.87
2017-05-19T06:00:39.054Z,25.45
2017-05-19T06:01:36.998Z,25.78
2017-05-19T06:02:37.146Z,25.86
2017-05-19T06:03:37.079Z,25.71
2017-05-19T06:04:37.132Z,25.47
2017-05-19T06:05:37.152Z,25.34
2017-05-19T06:06:37.214Z,25.17
2017-05-19T06:07:37.231Z,25.01
2017-05-19T06:08:37.300Z,24.64
2017-05-19T06:09:37.357Z,24.4
2017-05-19T06:10:37.380Z,24.46
2017-05-19T06:11:37.408Z,24.87
2017-05-19T06:12:37.428Z,25.7
2017-05-19T06:13:37.495Z,26.69
2017-05-19T06:14:37.535Z,27.72
2017-05-19T06:15:37.565Z,28.6
2017-05-19T06:16:37.591Z,29.38
2017-05-19T06:17:37.631Z,29.92
2017-05-19T06:18:37.691Z,30.28
2017-05-19T06:19:37.730Z,30.86
2017-05-19T06:20:37.779Z,30.96
2017-05-19T06:21:37.815Z,31.23
2017-05-19T06:22:37.850Z,31.72
2017-05-19T06:23:37.887Z,32.31
2017-05-19T06:24:37.936Z,32.67
2017-05-19T06:25:37.987Z,33.03
2017-05-19T06:26:38.027Z,33.4
2017-05-19T06:27:38.064Z,33.74
2017-05-19T06:28:38.114Z,33.83
2017-05-19T06:29:38.528Z,33.89
2017-05-19T06:30:38.200Z,34.11
2017-05-19T06:31:38.241Z,34.14
2017-05-19T06:32:38.630Z,34.11
2017-05-19T06:33:38.336Z,34.33
2017-05-19T06:34:38.371Z,34.58
2017-05-19T06:35:38.460Z,34.75
2017-05-19T06:36:38.446Z,34.67
2017-05-19T06:37:38.504Z,34.89
2017-05-19T06:38:38.552Z,34.83
2017-05-19T06:39:38.591Z,34.55
2017-05-19T06:40:38.640Z,34.06
2017-05-19T06:41:38.679Z,34.05
2017-05-19T06:42:39.043Z,34.02
2017-05-19T06:43:38.762Z,34.32
2017-05-19T06:44:38.814Z,34.37
2017-05-19T06:45:38.855Z,34.45
2017-05-19T06:46:38.902Z,34.63
2017-05-19T06:47:38.921Z,34.78
2017-05-19T06:48:38.986Z,34.96
2017-05-19T06:49:39.247Z,35.21
2017-05-19T06:50:39.041Z,35.39
2017-05-19T06:51:39.110Z,35.46
2017-05-19T06:52:39.153Z,35.82
2017-05-19T06:53:39.214Z,36.14
2017-05-19T06:54:39.236Z,36.19
2017-05-19T06:55:39.454Z,36.43
2017-05-19T06:56:39.332Z,36.53
2017-05-19T06:57:39.399Z,36.65
2017-05-19T06:58:39.440Z,36.83
2017-05-19T06:59:39.502Z,37.19
2017-05-19T07:00:48.860Z,37.34
2017-05-19T07:01:39.996Z,37.14
2017-05-19T07:02:39.895Z,37.11
2017-05-19T07:03:39.927Z,37.26
2017-05-19T07:04:39.932Z,37.29
2017-05-19T07:05:39.999Z,37.39
2017-05-19T07:06:40.036Z,37.36
2017-05-19T07:07:40.115Z,37.19
2017-05-19T07:08:40.128Z,36.92
2017-05-19T07:09:40.174Z,36.83
2017-05-19T07:10:40.306Z,36.78
2017-05-19T07:11:40.288Z,36.49
2017-05-19T07:12:40.670Z,36.39
2017-05-19T07:13:40.365Z,36.47
2017-05-19T07:14:40.410Z,36.63
2017-05-19T07:15:40.542Z,35.95
2017-05-19T07:16:40.522Z,35.92
2017-05-19T07:17:40.545Z,36.59
2017-05-19T07:18:40.560Z,37.19
2017-05-19T07:19:40.645Z,37.56
2017-05-19T07:20:40.756Z,37.68
2017-05-19T07:21:40.746Z,37.48
2017-05-19T07:22:40.844Z,37.75
2017-05-19T07:23:40.844Z,37.66
2017-05-19T07:24:40.865Z,37.65
2017-05-19T07:25:40.906Z,37.39
2017-05-19T07:26:41.076Z,37.45
2017-05-19T07:27:41.028Z,37.72
2017-05-19T07:28:41.052Z,37.9
2017-05-19T07:29:41.119Z,37.66
2017-05-19T07:30:41.162Z,38.08
2017-05-19T07:31:41.202Z,38.27
2017-05-19T07:32:41.238Z,38.17
2017-05-19T07:33:41.294Z,38.18
2017-05-19T07:34:41.354Z,37.94
2017-05-19T07:35:41.418Z,37.76
2017-05-19T07:36:41.540Z,37.98
2017-05-19T07:37:41.489Z,38.15
2017-05-19T07:38:41.534Z,38.35
2017-05-19T07:39:41.551Z,38.56
2017-05-19T07:40:41.622Z,38.65
2017-05-19T07:41:41.656Z,38.7
2017-05-19T07:42:41.714Z,38.28
2017-05-19T07:43:41.767Z,37.75
2017-05-19T07:44:41.813Z,37.37
2017-05-19T07:45:41.866Z,37.04
2017-05-19T07:46:41.888Z,37.14
2017-05-19T07:47:41.924Z,37.24
2017-05-19T07:48:41.981Z,37.39
2017-05-19T07:49:42.024Z,37.37
2017-05-19T07:50:42.088Z,37.93
2017-05-19T07:51:42.143Z,38.59
2017-05-19T07:52:42.176Z,39.52
2017-05-19T07:53:42.230Z,40.08
2017-05-19T07:54:42.279Z,40.24
2017-05-19T07:55:42.332Z,40.41
2017-05-19T07:56:42.373Z,40.5
2017-05-19T07:57:42.425Z,40.69
2017-05-19T07:58:42.471Z,40.79
2017-05-19T07:59:42.519Z,40.4
2017-05-19T08:00:42.541Z,40.41
2017-05-19T08:01:42.665Z,40.36
2017-05-19T08:02:42.665Z,40.12
2017-05-19T08:03:42.676Z,40.22
2017-05-19T08:04:42.751Z,40.45
2017-05-19T08:05:42.798Z,40.36
2017-05-19T08:06:42.848Z,40.25
2017-05-19T08:07:42.891Z,40.06
2017-05-19T08:08:42.956Z,40.27
2017-05-19T08:09:42.992Z,40.22
2017-05-19T08:10:43.038Z,40.01
2017-05-19T08:11:43.069Z,40.03
2017-05-19T08:12:43.154Z,40.06
2017-05-19T08:13:43.199Z,40.08
2017-05-19T08:14:43.239Z,39.76
2017-05-19T08:15:43.288Z,39.49
2017-05-19T08:16:43.305Z,39.45
2017-05-19T08:17:43.387Z,39.64
2017-05-19T08:18:43.440Z,39.93
2017-05-19T08:19:43.471Z,40.27
2017-05-19T08:20:43.528Z,40.41
2017-05-19T08:21:43.588Z,40.56
2017-05-19T08:22:43.620Z,40.03
2017-05-19T08:23:43.687Z,40.25
2017-05-19T08:24:43.743Z,40.28
2017-05-19T08:25:43.773Z,40.48
2017-05-19T08:26:44.203Z,40.77
2017-05-19T08:27:43.888Z,40.86
2017-05-19T08:28:44.263Z,40.77
2017-05-19T08:29:43.977Z,40.47
2017-05-19T08:30:44.027Z,40.15
2017-05-19T08:31:44.051Z,40.05
2017-05-19T08:32:44.129Z,39.96
2017-05-19T08:33:44.188Z,40.32
2017-05-19T08:34:44.215Z,40.91
2017-05-19T08:35:44.266Z,40.79
2017-05-19T08:36:44.331Z,40.77
2017-05-19T08:37:44.364Z,41.04
2017-05-19T08:38:44.415Z,41.26
2017-05-19T08:39:44.464Z,41.19
2017-05-19T08:40:44.535Z,41.26
2017-05-19T08:41:44.561Z,41.42
2017-05-19T08:42:44.598Z,41.42
2017-05-19T08:43:44.666Z,41.47
2017-05-19T08:44:44.709Z,41.54
2017-05-19T08:45:44.776Z,41.92
2017-05-19T08:46:44.827Z,42.41
2017-05-19T08:47:44.864Z,42.55
2017-05-19T08:48:44.916Z,42.3
2017-05-19T08:49:44.969Z,42.64
2017-05-19T08:50:45.063Z,42.63
2017-05-19T08:51:45.063Z,42.42
2017-05-19T08:52:45.106Z,42.28
2017-05-19T08:53:45.163Z,42.51
2017-05-19T08:54:45.209Z,42.52
2017-05-19T08:55:45.267Z,42.98
2017-05-19T08:56:45.308Z,43.01
2017-05-19T08:57:45.744Z,42.61
2017-05-19T08:58:45.767Z,42.73
2017-05-19T08:59:45.482Z,43.23
2017-05-19T09:00:45.533Z,43.24
2017-05-19T09:01:45.583Z,42.35
2017-05-19T09:02:45.889Z,41.28
2017-05-19T09:03:45.680Z,40.47
2017-05-19T09:04:45.730Z,39.97
2017-05-19T09:05:45.786Z,40.24
2017-05-19T09:06:45.829Z,40.91
2017-05-19T09:07:45.860Z,41.41
2017-05-19T09:08:45.928Z,41.42
2017-05-19T09:09:45.982Z,41.85
2017-05-19T09:10:46.026Z,42.33
2017-05-19T09:11:46.088Z,42.95
2017-05-19T09:12:46.132Z,43.16
2017-05-19T09:13:46.174Z,43.24
2017-05-19T09:14:46.245Z,43.17
2017-05-19T09:15:46.592Z,43.23
2017-05-19T09:16:46.370Z,43.3
2017-05-19T09:17:46.383Z,43.16
2017-05-19T09:18:46.440Z,43.32
2017-05-19T09:19:46.502Z,43.76
2017-05-19T09:20:46.707Z,43.95
2017-05-19T09:21:46.601Z,44.22
2017-05-19T09:22:46.653Z,44.6
2017-05-19T09:23:46.696Z,44.73
2017-05-19T09:24:46.762Z,44.61
2017-05-19T09:25:46.906Z,44.15
2017-05-19T09:26:46.857Z,43.8
2017-05-19T09:27:46.908Z,43.37
2017-05-19T09:28:47.317Z,42.92
2017-05-19T09:29:47.019Z,42.15
2017-05-19T09:30:47.078Z,41.82
2017-05-19T09:31:47.116Z,41.91
2017-05-19T09:32:47.191Z,42.28
2017-05-19T09:33:47.230Z,42.23
2017-05-19T09:34:47.279Z,42.42
2017-05-19T09:35:47.348Z,42.63
2017-05-19T09:36:47.398Z,42.47
2017-05-19T09:37:47.446Z,42.4
2017-05-19T09:38:47.546Z,42.45
2017-05-19T09:39:47.536Z,42.86
2017-05-19T09:40:47.607Z,42.92
2017-05-19T09:41:48.005Z,43.01
2017-05-19T09:42:47.705Z,43.2
2017-05-19T09:43:47.760Z,43.32
2017-05-19T09:44:47.802Z,43.59
2017-05-19T09:45:47.870Z,43.64
2017-05-19T09:46:47.921Z,43.58
2017-05-19T09:47:47.972Z,43.47
2017-05-19T09:48:48.037Z,43.33
2017-05-19T09:49:48.075Z,43.43
2017-05-19T09:50:48.140Z,43.16
2017-05-19T09:51:48.198Z,43.08
2017-05-19T09:52:48.305Z,43.44
2017-05-19T09:53:48.307Z,43.99
2017-05-19T09:54:48.368Z,44.14
2017-05-19T09:55:48.751Z,44.31
2017-05-19T09:56:48.428Z,44.21
2017-05-19T09:57:48.503Z,44.03
2017-05-19T09:58:48.903Z,44.11
2017-05-19T09:59:48.618Z,44.07
2017-05-19T10:00:48.882Z,44.29
2017-05-19T10:01:48.737Z,44.64
2017-05-19T10:02:48.850Z,44.75
2017-05-19T10:03:48.837Z,44.94
2017-05-19T10:04:48.916Z,45.36
2017-05-19T10:05:48.947Z,45.19
2017-05-19T10:06:49.456Z,44.87
2017-05-19T10:07:49.047Z,45.13
2017-05-19T10:08:49.119Z,45.71
2017-05-19T10:09:49.161Z,46.01
2017-05-19T10:10:49.197Z,46.11
2017-05-19T10:11:49.268Z,46.24
2017-05-19T10:12:49.319Z,46.2
2017-05-19T10:13:49.380Z,45.9
2017-05-19T10:14:49.409Z,45.41
2017-05-19T10:15:49.457Z,45.09
2017-05-19T10:16:49.761Z,44.97
2017-05-19T10:17:49.587Z,45.21
2017-05-19T10:18:49.627Z,45.6
2017-05-19T10:19:49.695Z,45.93
2017-05-19T10:20:49.725Z,46
2017-05-19T10:21:49.797Z,45.94
2017-05-19T10:22:49.851Z,45.91
2017-05-19T10:23:49.911Z,45.74
2017-05-19T10:24:49.960Z,45.34
2017-05-19T10:25:50.016Z,44.8
2017-05-19T10:26:50.033Z,44.71
2017-05-19T10:27:50.103Z,44.95
2017-05-19T10:28:50.164Z,45.32
2017-05-19T10:29:50.201Z,45.71
2017-05-19T10:30:50.304Z,46.16
2017-05-19T10:31:50.313Z,46.5
2017-05-19T10:32:50.354Z,46.26
2017-05-19T10:33:50.463Z,45.88
2017-05-19T10:34:50.426Z,45.12
2017-05-19T10:35:50.500Z,44.87
2017-05-19T10:36:50.537Z,45.09
2017-05-19T10:37:50.589Z,45.25
2017-05-19T10:38:50.646Z,45.41
2017-05-19T10:39:50.693Z,45.34
2017-05-19T10:40:50.742Z,45.18
2017-05-19T10:41:50.800Z,45.19
2017-05-19T10:42:50.823Z,45.51
2017-05-19T10:43:50.859Z,45.88
2017-05-19T10:44:50.957Z,46.24
2017-05-19T10:45:50.970Z,46.58
2017-05-19T10:46:51.027Z,46.55
2017-05-19T10:47:51.093Z,46.67
2017-05-19T10:48:51.144Z,46.73
2017-05-19T10:49:51.517Z,46.39
2017-05-19T10:50:51.563Z,45.9
2017-05-19T10:51:51.307Z,45.53
2017-05-19T10:52:51.299Z,45.37
2017-05-19T10:53:51.339Z,45.24
2017-05-19T10:54:51.418Z,45.14
2017-05-19T10:55:51.462Z,45.21
2017-05-19T10:56:51.501Z,45.32
2017-05-19T10:57:51.928Z,45.34
2017-05-19T10:58:51.573Z,45.43
2017-05-19T10:59:51.662Z,45.26
2017-05-19T11:00:51.667Z,44.91
2017-05-19T11:01:52.104Z,44.64
2017-05-19T11:02:51.861Z,44.42
2017-05-19T11:03:52.023Z,44.14
2017-05-19T11:04:51.879Z,43.88
2017-05-19T11:05:51.919Z,43.55
2017-05-19T11:06:51.955Z,43.58
2017-05-19T11:07:52.014Z,43.74
2017-05-19T11:08:52.054Z,43.9
2017-05-19T11:09:52.139Z,43.47
2017-05-19T11:10:52.140Z,42.92
2017-05-19T11:11:52.174Z,42.78
2017-05-19T11:12:52.438Z,42.63
2017-05-19T11:13:52.509Z,42.89
2017-05-19T11:14:52.363Z,42.83
2017-05-19T11:15:52.340Z,43.05
2017-05-19T11:16:52.407Z,43.02
2017-05-19T11:17:52.656Z,42.44
2017-05-19T11:18:52.502Z,41.94
2017-05-19T11:19:52.730Z,42.03
2017-05-19T11:20:52.586Z,41.8
2017-05-19T11:21:52.641Z,41.59
2017-05-19T11:22:52.680Z,41.06
2017-05-19T11:23:52.730Z,40.41
2017-05-19T11:24:53.049Z,40.09
2017-05-19T11:25:53.014Z,39.96
2017-05-19T11:26:53.339Z,39.53
2017-05-19T11:27:52.893Z,39.3
2017-05-19T11:28:53.134Z,39.08
2017-05-19T11:29:53.423Z,38.36
2017-05-19T11:30:53.242Z,37.49
2017-05-19T11:31:53.056Z,36.55
2017-05-19T11:32:53.129Z,35.52
2017-05-19T11:33:53.599Z,34.48
2017-05-19T11:34:53.215Z,33.75
2017-05-19T11:35:53.444Z,33.08
2017-05-19T11:36:53.287Z,32.61
2017-05-19T11:37:54.286Z,32.28
2017-05-19T11:38:53.378Z,32.03
2017-05-19T11:39:53.420Z,31.82
2017-05-19T11:40:54.935Z,31.58
2017-05-19T11:41:53.532Z,31.4
2017-05-19T11:42:53.558Z,31.23
2017-05-19T11:43:53.599Z,31.08
2017-05-19T11:44:53.675Z,31
2017-05-19T11:45:53.715Z,30.79
2017-05-19T11:46:54.388Z,30.73
2017-05-19T11:47:53.770Z,30.73
2017-05-19T11:48:53.797Z,30.75
2017-05-19T11:49:53.886Z,30.62
2017-05-19T11:50:54.079Z,30.62
2017-05-19T11:51:53.939Z,30.57
2017-05-19T11:52:54.625Z,30.52
2017-05-19T11:53:54.058Z,30.39
2017-05-19T11:54:54.064Z,30.29
2017-05-19T11:55:54.124Z,30.31
2017-05-19T11:56:54.161Z,30.13
2017-05-19T11:57:54.851Z,30.19
2017-05-19T11:58:54.573Z,30.11
2017-05-19T11:59:54.281Z,30.16
2017-05-19T12:00:54.335Z,30.07
2017-05-19T12:01:54.365Z,30.13
2017-05-19T12:02:54.414Z,30.16
2017-05-19T12:03:55.270Z,30.13
2017-05-19T12:04:54.484Z,30.11
2017-05-19T12:05:54.530Z,30.13
2017-05-19T12:06:54.585Z,30.1
2017-05-19T12:07:54.637Z,30.09
2017-05-19T12:08:55.252Z,30.11
2017-05-19T12:09:54.728Z,30.09
2017-05-19T12:10:55.535Z,30.14
2017-05-19T12:11:54.819Z,30.21
2017-05-19T12:12:55.153Z,30.13
2017-05-19T12:13:54.865Z,30.18
2017-05-19T12:14:54.919Z,30.16
2017-05-19T12:15:55.681Z,30.02
2017-05-19T12:16:55.204Z,30.02
2017-05-19T12:17:55.045Z,29.91
2017-05-19T12:18:55.092Z,29.87
2017-05-19T12:19:55.148Z,29.76
2017-05-19T12:20:55.218Z,29.85
2017-05-19T12:21:55.221Z,29.82
2017-05-19T12:22:55.278Z,29.95
2017-05-19T12:23:55.357Z,29.91
2017-05-19T12:24:55.356Z,29.97
2017-05-19T12:25:55.448Z,29.94
2017-05-19T12:26:55.417Z,29.85
2017-05-19T12:27:55.480Z,29.84
2017-05-19T12:28:55.584Z,29.76
2017-05-19T12:29:55.606Z,29.72
2017-05-19T12:30:55.593Z,29.67
2017-05-19T12:31:55.663Z,29.67
2017-05-19T12:32:55.767Z,29.66
2017-05-19T12:33:55.913Z,29.79
2017-05-19T12:34:55.787Z,29.76
2017-05-19T12:35:55.843Z,29.82
2017-05-19T12:36:55.859Z,29.81
2017-05-19T12:37:55.909Z,29.81
2017-05-19T12:38:55.940Z,29.82
2017-05-19T12:39:55.987Z,29.79
2017-05-19T12:40:56.016Z,29.76
2017-05-19T12:41:56.062Z,29.79
2017-05-19T12:42:56.176Z,29.82
2017-05-19T12:43:56.158Z,29.76
2017-05-19T12:44:56.193Z,29.76
2017-05-19T12:45:56.261Z,29.81
2017-05-19T12:46:56.713Z,29.76
2017-05-19T12:47:56.340Z,29.7
2017-05-19T12:48:56.369Z,29.65
2017-05-19T12:49:56.427Z,29.66
2017-05-19T12:50:56.462Z,29.69
2017-05-19T12:51:56.496Z,29.66
2017-05-19T12:52:56.540Z,29.72
2017-05-19T12:53:56.595Z,29.73
2017-05-19T12:54:56.606Z,29.65
2017-05-19T12:55:56.731Z,29.67